createdAt,value
2022-09-26T00:01:43.059Z,8.47
2022-09-26T00:04:32.590Z,8.56
2022-09-26T00:07:18.661Z,8.54
2022-09-26T00:10:04.554Z,8.57
2022-09-26T00:12:50.086Z,8.43
2022-09-26T00:15:35.777Z,8.40
2022-09-26T00:18:21.616Z,8.46
2022-09-26T00:21:12.984Z,8.49
2022-09-26T00:24:00.278Z,8.50
2022-09-26T00:26:45.760Z,8.52
2022-09-26T00:29:31.219Z,8.49
2022-09-26T00:32:16.768Z,8.55
2022-09-26T00:35:02.458Z,8.53
2022-09-26T00:37:48.349Z,8.51
2022-09-26T00:40:33.675Z,8.53
2022-09-26T00:43:35.995Z,8.55
2022-09-26T00:46:34.709Z,8.54
2022-09-26T00:49:42.352Z,8.49
2022-09-26T00:52:35.444Z,8.55
2022-09-26T00:55:25.526Z,8.46
2022-09-26T00:58:16.838Z,8.49
2022-09-26T01:01:02.452Z,8.47
2022-09-26T01:03:50.388Z,8.50
2022-09-26T01:06:36.321Z,8.48
2022-09-26T01:09:21.726Z,8.45
2022-09-26T01:12:08.730Z,8.52
2022-09-26T01:14:54.863Z,8.54
2022-09-26T01:17:43.334Z,8.42
2022-09-26T01:21:42.953Z,8.42
2022-09-26T01:24:53.173Z,8.52
2022-09-26T01:27:50.793Z,8.49
2022-09-26T01:30:52.387Z,8.53
2022-09-26T01:34:01.105Z,8.75
2022-09-26T01:37:14.344Z,8.73
2022-09-26T01:40:07.801Z,8.66
2022-09-26T01:43:08.350Z,8.75
2022-09-26T01:46:06.419Z,8.77
2022-09-26T01:49:01.757Z,8.87
2022-09-26T01:52:03.024Z,8.95
2022-09-26T01:54:58.354Z,8.98
2022-09-26T01:57:59.664Z,8.92
2022-09-26T02:00:49.341Z,8.87
2022-09-26T02:03:46.418Z,8.88
2022-09-26T02:06:47.682Z,8.91
2022-09-26T02:09:40.395Z,8.89
2022-09-26T02:12:36.469Z,9.01
2022-09-26T02:15:25.544Z,9.13
2022-09-26T02:18:37.837Z,9.13
2022-09-26T02:21:24.120Z,9.07
2022-09-26T02:24:09.586Z,9.06
2022-09-26T02:26:55.009Z,9.07
2022-09-26T02:29:40.606Z,9.04
2022-09-26T02:32:30.605Z,8.94
2022-09-26T02:35:35.069Z,9.03
2022-09-26T02:38:22.218Z,8.89
2022-09-26T02:41:34.318Z,8.94
2022-09-26T02:44:34.937Z,8.97
2022-09-26T02:47:47.609Z,9.08
2022-09-26T02:50:47.008Z,9.10
2022-09-26T02:53:56.393Z,9.09
2022-09-26T02:57:06.771Z,9.14
2022-09-26T03:00:03.803Z,9.19
2022-09-26T03:03:14.556Z,9.22
2022-09-26T03:06:02.881Z,9.01
2022-09-26T03:08:49.391Z,9.17
2022-09-26T03:11:35.938Z,9.22
2022-09-26T03:14:21.529Z,9.31
2022-09-26T03:17:08.292Z,9.20
2022-09-26T03:20:01.563Z,9.23
2022-09-26T03:22:47.501Z,9.29
2022-09-26T03:25:33.503Z,9.43
2022-09-26T03:28:18.952Z,9.40
2022-09-26T03:31:04.469Z,9.27
2022-09-26T03:33:49.884Z,9.23
2022-09-26T03:36:35.552Z,9.23
2022-09-26T03:39:21.229Z,9.31
2022-09-26T03:42:09.445Z,9.33
2022-09-26T03:44:55.211Z,9.30
2022-09-26T03:47:41.830Z,9.39
2022-09-26T03:50:27.641Z,9.25
2022-09-26T03:53:13.370Z,9.40
2022-09-26T03:56:11.118Z,9.50
2022-09-26T03:58:56.617Z,9.34
2022-09-26T04:01:41.847Z,9.39
2022-09-26T04:04:27.525Z,9.33
2022-09-26T04:07:12.916Z,9.33
2022-09-26T04:09:58.550Z,9.36
2022-09-26T04:12:44.491Z,9.38
2022-09-26T04:15:30.872Z,9.28
2022-09-26T04:18:16.205Z,9.33
2022-09-26T04:21:09.745Z,9.34
2022-09-26T04:23:56.396Z,9.29
2022-09-26T04:26:43.584Z,9.19
2022-09-26T04:29:29.439Z,9.34
2022-09-26T04:32:15.746Z,9.39
2022-09-26T04:35:01.497Z,9.36
2022-09-26T04:37:47.307Z,9.36
2022-09-26T04:40:33.087Z,9.34
2022-09-26T04:43:18.529Z,9.42
2022-09-26T04:46:24.514Z,9.34
2022-09-26T04:49:11.377Z,9.36
2022-09-26T04:51:56.677Z,9.28
2022-09-26T04:54:42.033Z,9.40
2022-09-26T04:57:27.629Z,9.47
2022-09-26T05:00:14.364Z,9.51
2022-09-26T05:02:59.765Z,9.41
2022-09-26T05:05:47.418Z,9.46
2022-09-26T05:08:33.215Z,9.43
2022-09-26T05:11:19.678Z,9.54
2022-09-26T05:14:05.344Z,9.40
2022-09-26T05:16:50.632Z,9.39
2022-09-26T05:19:36.421Z,9.50
2022-09-26T05:22:22.062Z,9.56
2022-09-26T05:25:26.618Z,9.48
2022-09-26T05:28:12.393Z,9.39
2022-09-26T05:30:57.874Z,9.31
2022-09-26T05:33:44.412Z,9.29
2022-09-26T05:36:30.228Z,9.36
2022-09-26T05:39:35.851Z,9.40
2022-09-26T05:42:24.512Z,9.50
2022-09-26T05:45:10.577Z,9.67
2022-09-26T05:47:56.054Z,9.71
2022-09-26T05:50:43.583Z,9.75
2022-09-26T05:53:29.828Z,9.78
2022-09-26T05:56:19.037Z,9.80
2022-09-26T05:59:05.512Z,9.86
2022-09-26T06:01:51.404Z,9.99
2022-09-26T06:04:37.281Z,9.95
2022-09-26T06:07:22.661Z,10.12
2022-09-26T06:10:08.341Z,10.22
2022-09-26T06:12:53.900Z,10.34
2022-09-26T06:15:39.879Z,10.35
2022-09-26T06:18:26.003Z,10.37
2022-09-26T06:21:13.286Z,10.45
2022-09-26T06:23:58.622Z,10.43
2022-09-26T06:26:44.456Z,10.43
2022-09-26T06:29:29.923Z,10.54
2022-09-26T06:32:15.227Z,10.71
2022-09-26T06:35:00.821Z,10.72
2022-09-26T06:37:46.441Z,10.79
2022-09-26T06:40:33.540Z,11.02
2022-09-26T06:43:19.093Z,11.04
2022-09-26T06:46:09.423Z,11.10
2022-09-26T06:48:55.187Z,11.38
2022-09-26T06:51:40.792Z,11.73
2022-09-26T06:54:26.105Z,11.97
2022-09-26T06:57:14.903Z,12.01
2022-09-26T07:00:01.426Z,11.94
2022-09-26T07:02:54.398Z,11.92
2022-09-26T07:05:39.856Z,12.07
2022-09-26T07:08:49.979Z,12.10
2022-09-26T07:11:41.982Z,12.17
2022-09-26T07:14:37.786Z,12.34
2022-09-26T07:17:23.199Z,12.18
2022-09-26T07:20:17.089Z,12.31
2022-09-26T07:23:03.515Z,12.46
2022-09-26T07:25:49.225Z,12.40
2022-09-26T07:28:34.984Z,12.62
2022-09-26T07:31:20.424Z,12.58
2022-09-26T07:34:07.550Z,12.84
2022-09-26T07:36:52.861Z,12.72
2022-09-26T07:39:38.327Z,12.92
2022-09-26T07:42:23.953Z,12.93
2022-09-26T07:45:24.800Z,12.71
2022-09-26T07:48:32.205Z,12.88
2022-09-26T07:51:17.721Z,13.05
2022-09-26T07:54:03.201Z,13.04
2022-09-26T07:56:48.488Z,13.23
2022-09-26T07:59:35.621Z,13.55
2022-09-26T08:02:23.515Z,13.66
2022-09-26T08:05:11.195Z,13.84
2022-09-26T08:07:57.260Z,13.84
2022-09-26T08:10:43.015Z,13.71
2022-09-26T08:13:30.069Z,13.96
2022-09-26T08:16:20.611Z,14.26
2022-09-26T08:19:07.800Z,14.37
2022-09-26T08:21:53.054Z,14.67
2022-09-26T08:24:38.943Z,14.89
2022-09-26T08:27:24.213Z,15.07
2022-09-26T08:30:10.514Z,15.25
2022-09-26T08:32:59.001Z,15.41
2022-09-26T08:35:45.307Z,15.85
2022-09-26T08:38:30.531Z,15.93
2022-09-26T08:41:32.575Z,16.92
2022-09-26T08:44:36.658Z,18.28
2022-09-26T08:47:45.031Z,19.08
2022-09-26T08:50:43.554Z,20.40
2022-09-26T08:53:37.327Z,20.90
2022-09-26T08:56:40.702Z,20.72
2022-09-26T08:59:41.961Z,20.28
2022-09-26T09:02:33.201Z,21.38
2022-09-26T09:05:32.826Z,20.78
2022-09-26T09:08:47.739Z,21.12
2022-09-26T09:11:51.244Z,21.58
2022-09-26T09:15:24.077Z,21.93
2022-09-26T09:18:15.801Z,20.46
2022-09-26T09:21:19.061Z,19.22
2022-09-26T09:24:11.062Z,19.37
2022-09-26T09:30:17.924Z,19.30
2022-09-26T09:33:24.509Z,19.39
2022-09-26T09:36:50.813Z,18.45
2022-09-26T09:39:40.021Z,18.13
2022-09-26T09:42:43.268Z,18.38
2022-09-26T09:45:37.176Z,18.43
2022-09-26T09:48:27.041Z,17.98
2022-09-26T09:51:33.250Z,18.19
2022-09-26T09:54:47.451Z,18.99
2022-09-26T09:57:51.445Z,19.67
2022-09-26T10:00:45.596Z,19.27
2022-09-26T10:04:05.942Z,18.54
2022-09-26T10:06:51.431Z,19.50
2022-09-26T10:09:42.339Z,19.69
2022-09-26T10:12:30.620Z,19.36
2022-09-26T10:15:21.583Z,20.99
2022-09-26T10:18:26.171Z,20.34
2022-09-26T10:21:17.696Z,20.28
2022-09-26T10:24:04.683Z,19.67
2022-09-26T10:26:50.815Z,18.92
2022-09-26T10:29:36.806Z,19.21
2022-09-26T10:32:22.006Z,17.84
2022-09-26T10:35:24.136Z,17.46
2022-09-26T10:38:24.710Z,16.91
2022-09-26T10:41:23.083Z,17.73
2022-09-26T10:44:30.396Z,18.53
2022-09-26T10:47:19.380Z,20.03
2022-09-26T10:50:11.540Z,20.12
2022-09-26T10:53:10.338Z,19.97
2022-09-26T10:56:02.639Z,20.55
2022-09-26T10:58:51.291Z,21.19
2022-09-26T11:01:43.064Z,21.33
2022-09-26T11:04:49.963Z,20.36
2022-09-26T11:07:39.601Z,20.07
2022-09-26T11:10:32.369Z,19.80
2022-09-26T11:13:23.043Z,19.81
2022-09-26T11:16:14.531Z,19.15
2022-09-26T11:19:35.441Z,18.64
2022-09-26T11:22:42.117Z,18.11
2022-09-26T11:25:32.331Z,18.50
2022-09-26T11:28:34.304Z,18.94
2022-09-26T11:31:27.678Z,18.37
2022-09-26T11:34:16.972Z,17.48
2022-09-26T11:37:14.571Z,17.58
2022-09-26T11:40:14.968Z,17.36
2022-09-26T11:43:24.326Z,17.38
2022-09-26T11:46:48.178Z,16.65
2022-09-26T11:49:51.915Z,16.03
2022-09-26T11:53:09.309Z,15.86
2022-09-26T11:56:22.801Z,15.52
2022-09-26T11:59:30.211Z,15.51
2022-09-26T12:02:47.157Z,15.18
2022-09-26T12:05:52.327Z,15.83
2022-09-26T12:08:57.904Z,16.57
2022-09-26T12:12:11.411Z,17.46
2022-09-26T12:15:23.483Z,17.79
2022-09-26T12:18:22.251Z,17.60
2022-09-26T12:21:13.441Z,17.48
2022-09-26T12:24:06.007Z,17.31
2022-09-26T12:27:01.820Z,17.74
2022-09-26T12:30:02.349Z,17.35
2022-09-26T12:33:22.524Z,17.12
2022-09-26T12:36:21.820Z,17.13
2022-09-26T12:39:44.641Z,17.52
2022-09-26T12:42:52.373Z,17.03
2022-09-26T12:45:55.352Z,17.13
2022-09-26T12:48:44.891Z,16.46
2022-09-26T12:51:47.176Z,16.56
2022-09-26T12:54:57.517Z,16.68
2022-09-26T12:57:57.087Z,16.78
2022-09-26T13:01:20.098Z,16.76
2022-09-26T13:04:31.859Z,16.76
2022-09-26T13:07:42.175Z,16.51
2022-09-26T13:10:33.366Z,16.33
2022-09-26T13:13:46.398Z,16.02
2022-09-26T13:16:57.750Z,15.94
2022-09-26T13:19:51.739Z,15.82
2022-09-26T13:22:52.545Z,15.79
2022-09-26T13:25:54.354Z,15.71
2022-09-26T13:29:15.502Z,15.56
2022-09-26T13:32:14.114Z,15.27
2022-09-26T13:35:06.293Z,14.86
2022-09-26T13:38:01.306Z,14.69
2022-09-26T13:41:01.581Z,14.52
2022-09-26T13:43:55.571Z,14.67
2022-09-26T13:47:24.085Z,14.57
2022-09-26T13:50:34.263Z,14.41
2022-09-26T13:53:28.925Z,14.48
2022-09-26T13:56:43.975Z,14.51
2022-09-26T13:59:35.970Z,14.31
2022-09-26T14:02:29.804Z,14.47
2022-09-26T14:05:18.137Z,14.67
2022-09-26T14:08:46.078Z,14.55
2022-09-26T14:11:51.856Z,14.78
2022-09-26T14:14:46.099Z,14.93
2022-09-26T14:17:43.717Z,14.71
2022-09-26T14:20:35.265Z,14.94
2022-09-26T14:23:38.486Z,14.65
2022-09-26T14:26:28.238Z,14.59
2022-09-26T14:29:29.203Z,14.46
2022-09-26T14:32:18.893Z,14.30
2022-09-26T14:35:20.304Z,13.83
2022-09-26T14:38:14.969Z,13.73
2022-09-26T14:41:00.444Z,13.72
2022-09-26T14:43:47.890Z,13.57
2022-09-26T14:46:35.776Z,13.54
2022-09-26T14:49:28.301Z,13.48
2022-09-26T14:52:20.412Z,13.35
2022-09-26T14:55:07.864Z,13.53
2022-09-26T14:58:16.415Z,13.36
2022-09-26T15:01:25.363Z,13.34
2022-09-26T15:04:29.550Z,13.45
2022-09-26T15:07:22.330Z,13.34
2022-09-26T15:10:13.810Z,13.40
2022-09-26T15:13:08.438Z,13.39
2022-09-26T15:16:13.746Z,13.36
2022-09-26T15:19:22.039Z,13.12
2022-09-26T15:22:13.680Z,13.17
2022-09-26T15:25:19.624Z,13.21
2022-09-26T15:28:05.250Z,13.20
2022-09-26T15:31:20.572Z,13.20
2022-09-26T15:34:22.904Z,13.21
2022-09-26T15:37:17.339Z,13.29
2022-09-26T15:40:24.002Z,13.30
2022-09-26T15:43:09.798Z,13.17
2022-09-26T15:46:03.477Z,13.04
2022-09-26T15:48:51.845Z,13.03
2022-09-26T15:51:39.789Z,13.07
2022-09-26T15:54:30.146Z,13.08
2022-09-26T15:57:15.774Z,13.10
2022-09-26T16:00:02.220Z,13.12
2022-09-26T16:02:48.494Z,13.00
2022-09-26T16:05:34.849Z,13.04
2022-09-26T16:08:26.779Z,13.02
2022-09-26T16:11:12.346Z,13.04
2022-09-26T16:13:58.093Z,13.05
2022-09-26T16:16:43.438Z,13.02
2022-09-26T16:19:53.444Z,12.99
2022-09-26T16:22:46.933Z,12.94
2022-09-26T16:25:53.044Z,12.96
2022-09-26T16:28:42.434Z,13.03
2022-09-26T16:31:31.655Z,13.09
2022-09-26T16:34:23.081Z,13.22
2022-09-26T16:37:17.042Z,13.10
2022-09-26T16:40:02.681Z,13.11
2022-09-26T16:42:48.080Z,13.06
2022-09-26T16:45:33.853Z,13.01
2022-09-26T16:48:51.500Z,13.16
2022-09-26T16:51:40.791Z,13.11
2022-09-26T16:54:26.324Z,13.02
2022-09-26T16:57:19.959Z,13.07
2022-09-26T17:00:34.671Z,13.21
2022-09-26T17:03:26.104Z,13.17
2022-09-26T17:06:11.417Z,12.98
2022-09-26T17:09:03.216Z,12.87
2022-09-26T17:11:53.149Z,12.93
2022-09-26T17:14:41.213Z,12.91
2022-09-26T17:17:26.838Z,12.91
2022-09-26T17:20:13.962Z,12.99
2022-09-26T17:23:11.928Z,13.10
2022-09-26T17:26:06.903Z,13.03
2022-09-26T17:28:53.280Z,13.02
2022-09-26T17:31:38.975Z,12.98
2022-09-26T17:34:28.238Z,13.02
2022-09-26T17:37:18.173Z,13.00
2022-09-26T17:40:10.227Z,12.95
2022-09-26T17:42:57.265Z,13.02
2022-09-26T17:45:49.028Z,13.02
2022-09-26T17:48:35.590Z,12.93
2022-09-26T17:51:22.165Z,12.97
2022-09-26T17:54:15.062Z,12.81
2022-09-26T17:57:00.959Z,12.97
2022-09-26T17:59:46.596Z,12.77
2022-09-26T18:02:34.636Z,12.98
2022-09-26T18:05:28.355Z,12.81
2022-09-26T18:08:29.676Z,12.71
2022-09-26T18:11:17.346Z,12.71
2022-09-26T18:14:06.133Z,12.84
2022-09-26T18:16:51.632Z,12.91
2022-09-26T18:19:38.221Z,12.95
2022-09-26T18:22:31.070Z,12.78
2022-09-26T18:25:21.706Z,12.84
2022-09-26T18:28:17.465Z,12.96
2022-09-26T18:31:03.276Z,12.89
2022-09-26T18:33:49.061Z,12.93
2022-09-26T18:36:35.118Z,12.90
2022-09-26T18:39:20.768Z,12.91
2022-09-26T18:42:09.345Z,12.87
2022-09-26T18:45:04.946Z,12.80
2022-09-26T18:47:50.295Z,12.79
2022-09-26T18:50:39.042Z,12.93
2022-09-26T18:53:32.222Z,12.89
2022-09-26T18:56:36.399Z,12.88
2022-09-26T18:59:26.739Z,12.87
2022-09-26T19:02:23.427Z,12.87
2022-09-26T19:05:15.967Z,12.70
2022-09-26T19:08:02.178Z,12.80
2022-09-26T19:10:48.975Z,12.91
2022-09-26T19:13:34.669Z,12.48
2022-09-26T19:16:21.569Z,12.80
2022-09-26T19:19:06.901Z,12.78
2022-09-26T19:21:57.100Z,12.97
2022-09-26T19:24:50.127Z,12.94
2022-09-26T19:27:46.536Z,12.92
2022-09-26T19:30:32.941Z,12.82
2022-09-26T19:33:19.152Z,12.80
2022-09-26T19:36:04.626Z,12.74
2022-09-26T19:38:50.047Z,12.82
2022-09-26T19:41:37.059Z,12.76
2022-09-26T19:44:24.936Z,12.79
2022-09-26T19:47:33.385Z,12.95
2022-09-26T19:50:22.744Z,12.72
2022-09-26T19:53:14.259Z,12.72
2022-09-26T19:56:01.047Z,12.82
2022-09-26T19:58:48.920Z,12.81
2022-09-26T20:01:34.686Z,12.70
2022-09-26T20:04:23.248Z,12.69
2022-09-26T20:07:12.237Z,12.66
2022-09-26T20:09:58.544Z,12.80
2022-09-26T20:12:45.402Z,12.84
2022-09-26T20:15:31.974Z,12.79
2022-09-26T20:18:21.666Z,12.78
2022-09-26T20:21:09.681Z,12.90
2022-09-26T20:23:57.710Z,12.87
2022-09-26T20:26:44.639Z,12.85
2022-09-26T20:29:50.600Z,12.84
2022-09-26T20:32:36.673Z,12.88
2022-09-26T20:35:22.772Z,12.74
2022-09-26T20:38:15.255Z,12.84
2022-09-26T20:41:10.551Z,12.69
2022-09-26T20:44:02.672Z,12.82
2022-09-26T20:46:56.873Z,12.82
2022-09-26T20:49:50.838Z,12.76
2022-09-26T20:52:37.038Z,12.79
2022-09-26T20:55:22.672Z,12.71
2022-09-26T20:58:09.480Z,12.77
2022-09-26T21:00:56.203Z,12.72
2022-09-26T21:03:45.456Z,12.70
2022-09-26T21:06:33.832Z,12.73
2022-09-26T21:09:20.277Z,12.72
2022-09-26T21:12:15.056Z,12.71
2022-09-26T21:15:00.677Z,12.72
2022-09-26T21:17:48.027Z,12.65
2022-09-26T21:20:34.851Z,12.69
2022-09-26T21:23:21.598Z,12.64
2022-09-26T21:26:19.412Z,12.60
2022-09-26T21:29:12.717Z,12.69
2022-09-26T21:32:04.561Z,12.75
2022-09-26T21:35:02.932Z,12.63
2022-09-26T21:37:53.669Z,12.58
2022-09-26T21:40:43.333Z,12.63
2022-09-26T21:43:34.993Z,12.57
2022-09-26T21:46:21.268Z,12.73
2022-09-26T21:49:07.008Z,12.72
2022-09-26T21:51:57.913Z,12.60
2022-09-26T21:54:45.239Z,12.55
2022-09-26T21:57:34.730Z,12.58
2022-09-26T22:00:22.498Z,12.52
2022-09-26T22:03:08.556Z,12.58
2022-09-26T22:05:53.838Z,12.50
2022-09-26T22:08:41.961Z,12.48
2022-09-26T22:11:28.290Z,12.46
2022-09-26T22:14:14.711Z,12.48
2022-09-26T22:17:01.050Z,12.38
2022-09-26T22:19:46.998Z,12.30
2022-09-26T22:22:32.959Z,12.07
2022-09-26T22:25:18.845Z,12.11
2022-09-26T22:28:04.758Z,12.06
2022-09-26T22:30:50.739Z,11.91
2022-09-26T22:33:36.621Z,11.82
2022-09-26T22:36:22.493Z,11.79
2022-09-26T22:39:10.468Z,11.66
2022-09-26T22:41:57.273Z,11.77
2022-09-26T22:44:42.726Z,11.72
2022-09-26T22:47:28.163Z,11.70
2022-09-26T22:50:13.404Z,11.70
2022-09-26T22:52:59.708Z,11.63
2022-09-26T22:55:52.301Z,11.64
2022-09-26T22:58:40.750Z,11.59
2022-09-26T23:01:27.870Z,11.56
2022-09-26T23:04:13.603Z,11.43
2022-09-26T23:06:59.511Z,11.42
2022-09-26T23:09:45.682Z,11.41
2022-09-26T23:12:32.326Z,11.37
2022-09-26T23:15:19.293Z,11.36
2022-09-26T23:18:04.948Z,11.39
2022-09-26T23:20:51.065Z,11.52
2022-09-26T23:23:38.978Z,11.48
2022-09-26T23:26:26.680Z,11.42
2022-09-26T23:29:13.180Z,11.54
2022-09-26T23:31:59.011Z,11.37
2022-09-26T23:34:44.622Z,11.26
2022-09-26T23:37:31.450Z,11.29
2022-09-26T23:40:17.621Z,11.19
2022-09-26T23:43:03.021Z,11.24
2022-09-26T23:45:48.881Z,11.38
2022-09-26T23:48:35.061Z,11.32
2022-09-26T23:51:20.926Z,11.37
2022-09-26T23:54:08.002Z,11.29
2022-09-26T23:56:53.920Z,11.24
2022-09-26T23:59:39.461Z,11.28
